createdAt,value
2022-12-09T00:00:32.493Z,14.40
2022-12-09T00:01:32.436Z,15.40
2022-12-09T00:02:32.450Z,15.10
2022-12-09T00:03:32.471Z,14.70
2022-12-09T00:04:32.475Z,14.50
2022-12-09T00:05:32.317Z,14.20
2022-12-09T00:06:32.304Z,14.40
2022-12-09T00:07:32.254Z,15.40
2022-12-09T00:08:32.451Z,16.50
2022-12-09T00:09:32.449Z,14.90
2022-12-09T00:10:32.438Z,15.50
2022-12-09T00:11:32.469Z,14.80
2022-12-09T00:12:32.196Z,15.90
2022-12-09T00:13:32.440Z,15.50
2022-12-09T00:14:32.272Z,14.10
2022-12-09T00:15:32.202Z,15.30
2022-12-09T00:16:32.237Z,16.40
2022-12-09T00:17:32.350Z,15.90
2022-12-09T00:18:32.140Z,16.40
2022-12-09T00:19:32.141Z,15.10
2022-12-09T00:20:32.118Z,15.90
2022-12-09T00:21:32.390Z,16.20
2022-12-09T00:22:32.092Z,15.70
2022-12-09T00:23:32.091Z,16.20
2022-12-09T00:24:32.071Z,16.20
2022-12-09T00:25:32.244Z,15.70
2022-12-09T00:26:32.108Z,16.50
2022-12-09T00:27:32.059Z,16.80
2022-12-09T00:28:32.020Z,15.70
2022-12-09T00:29:32.092Z,16.80
2022-12-09T00:30:32.193Z,15.60
2022-12-09T00:31:32.376Z,16.50
2022-12-09T00:32:32.251Z,16.70
2022-12-09T00:33:31.995Z,16.90
2022-12-09T00:34:32.062Z,16.60
2022-12-09T00:35:31.990Z,16.30
2022-12-09T00:36:32.241Z,16.70
2022-12-09T00:37:31.969Z,17.90
2022-12-09T00:38:31.915Z,16.60
2022-12-09T00:39:31.976Z,17.10
2022-12-09T00:40:32.052Z,16.50
2022-12-09T00:41:32.065Z,16.70
2022-12-09T00:42:31.892Z,16.30
2022-12-09T00:43:32.129Z,17.50
2022-12-09T00:44:31.951Z,16.50
2022-12-09T00:45:32.081Z,16.90
2022-12-09T00:46:31.884Z,16.40
2022-12-09T00:47:32.142Z,16.40
2022-12-09T00:48:32.036Z,17.30
2022-12-09T00:49:31.800Z,17.70
2022-12-09T00:50:31.877Z,16.90
2022-12-09T00:51:31.983Z,17.50
2022-12-09T00:52:31.800Z,16.80
2022-12-09T00:53:31.798Z,16.30
2022-12-09T00:54:32.031Z,17.30
2022-12-09T00:55:31.841Z,17.80
2022-12-09T00:56:31.875Z,17.10
2022-12-09T00:57:31.766Z,18.40
2022-12-09T00:58:31.731Z,16.70
2022-12-09T00:59:31.875Z,18.00
2022-12-09T01:00:31.699Z,16.80
2022-12-09T01:01:31.777Z,18.30
2022-12-09T01:02:31.895Z,18.60
2022-12-09T01:03:32.012Z,18.80
2022-12-09T01:04:31.860Z,18.50
2022-12-09T01:05:31.715Z,18.60
2022-12-09T01:06:31.637Z,18.90
2022-12-09T01:07:31.672Z,18.90
2022-12-09T01:08:31.676Z,19.20
2022-12-09T01:09:31.776Z,18.40
2022-12-09T01:10:31.568Z,19.90
2022-12-09T01:11:31.603Z,17.40
2022-12-09T01:12:31.580Z,18.60
2022-12-09T01:13:31.627Z,18.90
2022-12-09T01:14:31.592Z,18.20
2022-12-09T01:15:31.561Z,18.80
2022-12-09T01:16:31.685Z,19.80
2022-12-09T01:17:31.726Z,18.80
2022-12-09T01:18:31.509Z,18.60
2022-12-09T01:19:31.533Z,18.60
2022-12-09T01:20:31.565Z,17.80
2022-12-09T01:21:31.518Z,18.90
2022-12-09T01:22:31.510Z,18.10
2022-12-09T01:23:31.469Z,20.00
2022-12-09T01:24:31.479Z,20.20
2022-12-09T01:25:31.689Z,18.50
2022-12-09T01:26:31.759Z,19.30
2022-12-09T01:27:31.705Z,19.00
2022-12-09T01:28:31.373Z,20.30
2022-12-09T01:29:31.679Z,19.30
2022-12-09T01:30:31.457Z,20.90
2022-12-09T01:31:31.445Z,18.80
2022-12-09T01:32:31.796Z,19.00
2022-12-09T01:33:31.562Z,19.70
2022-12-09T01:34:31.449Z,20.60
2022-12-09T01:35:31.596Z,20.70
2022-12-09T01:36:31.297Z,21.30
2022-12-09T01:37:31.301Z,19.60
2022-12-09T01:38:31.519Z,20.90
2022-12-09T01:39:31.262Z,20.20
2022-12-09T01:40:31.544Z,20.40
2022-12-09T01:41:31.411Z,21.10
2022-12-09T01:42:31.383Z,20.60
2022-12-09T01:43:31.217Z,20.00
2022-12-09T01:44:31.373Z,20.20
2022-12-09T01:45:31.319Z,21.30
2022-12-09T01:46:31.236Z,20.90
2022-12-09T01:47:31.403Z,20.80
2022-12-09T01:48:31.174Z,20.80
2022-12-09T01:49:31.213Z,22.00
2022-12-09T01:50:31.262Z,19.70
2022-12-09T01:51:31.129Z,19.90
2022-12-09T01:52:31.169Z,21.10
2022-12-09T01:53:31.146Z,19.90
2022-12-09T01:54:31.350Z,20.90
2022-12-09T01:55:31.084Z,20.30
2022-12-09T01:56:31.120Z,20.20
2022-12-09T01:57:31.073Z,20.70
2022-12-09T01:58:31.060Z,22.00
2022-12-09T01:59:31.043Z,21.30
2022-12-09T02:00:31.065Z,20.80
2022-12-09T02:01:31.089Z,21.60
2022-12-09T02:02:31.450Z,22.60
2022-12-09T02:03:31.109Z,21.00
2022-12-09T02:04:31.387Z,21.00
2022-12-09T02:05:31.115Z,20.90
2022-12-09T02:06:30.971Z,21.20
2022-12-09T02:07:30.986Z,20.20
2022-12-09T02:08:31.278Z,21.30
2022-12-09T02:09:31.231Z,19.70
2022-12-09T02:10:31.083Z,21.10
2022-12-09T02:11:30.910Z,20.40
2022-12-09T02:12:31.191Z,19.60
2022-12-09T02:13:31.210Z,21.10
2022-12-09T02:14:30.882Z,18.70
2022-12-09T02:15:30.918Z,20.30
2022-12-09T02:16:31.205Z,20.60
2022-12-09T02:17:30.979Z,20.50
2022-12-09T02:18:30.890Z,20.10
2022-12-09T02:19:30.902Z,20.40
2022-12-09T02:20:31.132Z,21.40
2022-12-09T02:21:31.120Z,20.50
2022-12-09T02:22:30.973Z,19.70
2022-12-09T02:23:30.840Z,20.70
2022-12-09T02:24:30.824Z,19.60
2022-12-09T02:25:30.851Z,19.40
2022-12-09T02:26:30.992Z,18.80
2022-12-09T02:27:30.747Z,19.30
2022-12-09T02:28:30.928Z,19.90
2022-12-09T02:29:30.724Z,19.90
2022-12-09T02:30:31.016Z,21.00
2022-12-09T02:31:31.027Z,19.60
2022-12-09T02:32:30.774Z,21.20
2022-12-09T02:33:31.068Z,20.50
2022-12-09T02:34:30.698Z,21.80
2022-12-09T02:35:30.666Z,19.30
2022-12-09T02:36:30.966Z,19.10
2022-12-09T02:37:30.777Z,18.80
2022-12-09T02:38:30.624Z,19.90
2022-12-09T02:39:30.635Z,18.90
2022-12-09T02:40:30.812Z,20.80
2022-12-09T02:41:30.623Z,19.20
2022-12-09T02:42:30.715Z,19.30
2022-12-09T02:43:30.593Z,18.80
2022-12-09T02:44:30.809Z,18.40
2022-12-09T02:45:30.635Z,21.70
2022-12-09T02:46:30.911Z,20.30
2022-12-09T02:47:30.727Z,20.20
2022-12-09T02:48:30.662Z,18.90
2022-12-09T02:49:30.850Z,20.50
2022-12-09T02:50:30.555Z,21.20
2022-12-09T02:51:30.836Z,19.70
2022-12-09T02:52:30.530Z,21.20
2022-12-09T02:53:30.464Z,19.80
2022-12-09T02:54:30.671Z,20.50
2022-12-09T02:55:30.590Z,19.70
2022-12-09T02:56:30.455Z,19.20
2022-12-09T02:57:30.790Z,19.60
2022-12-09T02:58:30.540Z,19.20
2022-12-09T02:59:30.398Z,19.20
2022-12-09T03:00:30.682Z,19.10
2022-12-09T03:01:30.484Z,19.30
2022-12-09T03:02:30.545Z,19.00
2022-12-09T03:03:30.602Z,19.60
2022-12-09T03:04:30.750Z,18.90
2022-12-09T03:05:30.459Z,18.90
2022-12-09T03:06:30.582Z,19.40
2022-12-09T03:07:30.340Z,19.00
2022-12-09T03:08:30.804Z,18.70
2022-12-09T03:09:30.360Z,19.00
2022-12-09T03:10:30.476Z,18.60
2022-12-09T03:11:30.409Z,20.30
2022-12-09T03:12:30.428Z,20.00
2022-12-09T03:13:30.513Z,19.50
2022-12-09T03:14:30.262Z,20.50
2022-12-09T03:15:30.221Z,19.60
2022-12-09T03:16:30.397Z,19.00
2022-12-09T03:17:30.380Z,18.70
2022-12-09T03:18:30.245Z,18.10
2022-12-09T03:19:30.220Z,18.90
2022-12-09T03:20:30.436Z,18.40
2022-12-09T03:21:30.179Z,18.70
2022-12-09T03:22:30.289Z,18.70
2022-12-09T03:23:30.418Z,17.70
2022-12-09T03:24:30.211Z,18.70
2022-12-09T03:25:30.487Z,19.60
2022-12-09T03:26:30.128Z,19.00
2022-12-09T03:27:30.379Z,19.00
2022-12-09T03:28:30.539Z,18.50
2022-12-09T03:29:30.370Z,19.50
2022-12-09T03:30:30.208Z,19.40
2022-12-09T03:31:30.192Z,20.00
2022-12-09T03:32:30.481Z,19.20
2022-12-09T03:33:30.268Z,20.30
2022-12-09T03:34:30.384Z,20.50
2022-12-09T03:35:30.021Z,21.10
2022-12-09T03:36:30.035Z,19.80
2022-12-09T03:37:30.245Z,20.80
2022-12-09T03:38:30.036Z,19.80
2022-12-09T03:39:30.173Z,20.30
2022-12-09T03:40:30.095Z,19.30
2022-12-09T03:41:30.174Z,21.50
2022-12-09T03:42:29.943Z,20.50
2022-12-09T03:43:29.928Z,21.40
2022-12-09T03:44:29.957Z,21.10
2022-12-09T03:45:30.203Z,20.30
2022-12-09T03:46:30.049Z,22.00
2022-12-09T03:47:30.248Z,20.30
2022-12-09T03:48:30.016Z,20.60
2022-12-09T03:49:29.858Z,22.20
2022-12-09T03:50:29.980Z,21.60
2022-12-09T03:51:30.181Z,20.50
2022-12-09T03:52:30.039Z,21.20
2022-12-09T03:53:29.825Z,21.20
2022-12-09T03:54:29.879Z,23.10
2022-12-09T03:55:30.028Z,21.70
2022-12-09T03:56:29.996Z,20.80
2022-12-09T03:57:29.812Z,22.90
2022-12-09T03:58:30.113Z,22.70
2022-12-09T03:59:30.014Z,21.10
2022-12-09T04:00:29.923Z,20.80
2022-12-09T04:01:29.791Z,20.50
2022-12-09T04:02:30.240Z,22.80
2022-12-09T04:03:30.076Z,19.50
2022-12-09T04:04:29.909Z,20.10
2022-12-09T04:05:29.990Z,22.00
2022-12-09T04:06:29.902Z,20.90
2022-12-09T04:07:29.695Z,21.10
2022-12-09T04:08:29.926Z,21.10
2022-12-09T04:09:29.923Z,20.40
2022-12-09T04:10:29.743Z,20.10
2022-12-09T04:11:29.696Z,21.00
2022-12-09T04:12:29.775Z,21.10
2022-12-09T04:13:29.979Z,19.40
2022-12-09T04:14:29.975Z,20.20
2022-12-09T04:15:29.573Z,19.20
2022-12-09T04:16:29.722Z,21.00
2022-12-09T04:17:29.854Z,18.60
2022-12-09T04:18:29.763Z,19.00
2022-12-09T04:19:29.627Z,19.70
2022-12-09T04:20:29.583Z,19.30
2022-12-09T04:21:29.566Z,18.80
2022-12-09T04:22:29.552Z,20.30
2022-12-09T04:23:29.842Z,19.90
2022-12-09T04:24:29.868Z,20.90
2022-12-09T04:25:29.742Z,19.20
2022-12-09T04:26:29.782Z,20.60
2022-12-09T04:27:29.460Z,19.00
2022-12-09T04:28:29.545Z,19.30
2022-12-09T04:29:29.488Z,18.40
2022-12-09T04:30:29.844Z,19.10
2022-12-09T04:31:29.900Z,19.10
2022-12-09T04:32:29.660Z,18.90
2022-12-09T04:33:29.399Z,18.30
2022-12-09T04:34:29.633Z,19.60
2022-12-09T04:35:29.418Z,19.10
2022-12-09T04:36:29.562Z,19.30
2022-12-09T04:37:29.556Z,19.90
2022-12-09T04:38:29.385Z,19.80
2022-12-09T04:39:29.337Z,19.20
2022-12-09T04:40:29.599Z,19.90
2022-12-09T04:41:29.665Z,17.40
2022-12-09T04:42:29.329Z,19.10
2022-12-09T04:43:29.307Z,19.10
2022-12-09T04:44:29.311Z,18.40
2022-12-09T04:45:29.389Z,19.10
2022-12-09T04:46:29.371Z,19.90
2022-12-09T04:47:29.548Z,18.60
2022-12-09T04:48:29.340Z,18.70
2022-12-09T04:49:29.595Z,18.30
2022-12-09T04:50:29.555Z,18.70
2022-12-09T04:51:34.242Z,18.80
2022-12-09T04:52:29.527Z,20.00
2022-12-09T04:53:29.276Z,18.70
2022-12-09T04:54:29.515Z,19.30
2022-12-09T04:55:29.425Z,17.50
2022-12-09T04:56:29.510Z,17.90
2022-12-09T04:57:29.154Z,19.90
2022-12-09T04:58:29.200Z,18.00
2022-12-09T04:59:29.489Z,18.30
2022-12-09T05:00:29.179Z,19.00
2022-12-09T05:01:31.449Z,19.60
2022-12-09T05:02:29.480Z,20.10
2022-12-09T05:03:29.483Z,19.40
2022-12-09T05:04:29.569Z,18.80
2022-12-09T05:05:29.270Z,18.30
2022-12-09T05:06:29.531Z,20.00
2022-12-09T05:07:29.233Z,19.00
2022-12-09T05:08:31.625Z,19.10
2022-12-09T05:09:29.500Z,18.90
2022-12-09T05:10:29.442Z,18.30
2022-12-09T05:11:29.181Z,19.70
2022-12-09T05:12:29.131Z,19.20
2022-12-09T05:13:29.239Z,19.70
2022-12-09T05:14:29.148Z,19.60
2022-12-09T05:15:29.165Z,19.50
2022-12-09T05:16:29.095Z,18.80
2022-12-09T05:17:29.052Z,19.00
2022-12-09T05:18:29.184Z,19.30
2022-12-09T05:19:29.371Z,19.00
2022-12-09T05:20:29.087Z,18.70
2022-12-09T05:21:29.303Z,19.10
2022-12-09T05:22:28.878Z,19.20
2022-12-09T05:23:29.279Z,18.90
2022-12-09T05:24:29.028Z,19.30
2022-12-09T05:25:28.835Z,18.70
2022-12-09T05:26:28.921Z,19.50
2022-12-09T05:27:28.841Z,19.60
2022-12-09T05:28:29.089Z,17.90
2022-12-09T05:29:28.905Z,17.90
2022-12-09T05:30:28.902Z,17.50
2022-12-09T05:31:29.091Z,20.40
2022-12-09T05:32:28.952Z,20.70
2022-12-09T05:33:28.968Z,19.30
2022-12-09T05:34:29.169Z,19.50
2022-12-09T05:35:28.923Z,19.10
2022-12-09T05:36:29.096Z,18.80
2022-12-09T05:37:28.709Z,18.30
2022-12-09T05:38:28.789Z,19.80
2022-12-09T05:39:28.709Z,19.10
2022-12-09T05:40:28.717Z,18.90
2022-12-09T05:41:28.684Z,18.60
2022-12-09T05:42:28.828Z,18.30
2022-12-09T05:43:28.929Z,19.30
2022-12-09T05:44:29.055Z,18.20
2022-12-09T05:45:28.992Z,17.70
2022-12-09T05:46:29.045Z,20.00
2022-12-09T05:47:29.087Z,17.40
2022-12-09T05:48:28.689Z,18.50
2022-12-09T05:49:28.762Z,19.40
2022-12-09T05:50:28.818Z,19.20
2022-12-09T05:51:28.709Z,18.10
2022-12-09T05:52:28.641Z,18.50
2022-12-09T05:53:28.588Z,17.70
2022-12-09T05:54:28.845Z,18.90
2022-12-09T05:55:29.016Z,18.40
2022-12-09T05:56:28.636Z,18.70
2022-12-09T05:57:28.950Z,17.40
2022-12-09T05:58:28.885Z,18.90
2022-12-09T05:59:28.722Z,18.40
2022-12-09T06:00:28.624Z,17.80
2022-12-09T06:01:28.677Z,18.50
2022-12-09T06:02:28.600Z,18.80
2022-12-09T06:03:28.949Z,16.90
2022-12-09T06:04:28.788Z,18.60
2022-12-09T06:05:29.038Z,18.80
2022-12-09T06:06:29.077Z,18.60
2022-12-09T06:07:28.635Z,18.20
2022-12-09T06:08:28.608Z,19.20
2022-12-09T06:09:28.628Z,17.50
2022-12-09T06:10:28.743Z,19.00
2022-12-09T06:11:29.017Z,19.60
2022-12-09T06:12:28.641Z,17.90
2022-12-09T06:13:28.635Z,19.00
2022-12-09T06:14:28.628Z,18.30
2022-12-09T06:15:33.234Z,17.80
2022-12-09T06:16:28.542Z,18.50
2022-12-09T06:17:28.486Z,18.00
2022-12-09T06:18:28.538Z,18.00
2022-12-09T06:19:28.928Z,17.20
2022-12-09T06:20:28.586Z,17.40
2022-12-09T06:21:28.569Z,17.10
2022-12-09T06:22:28.248Z,16.90
2022-12-09T06:23:28.318Z,18.20
2022-12-09T06:24:28.621Z,17.00
2022-12-09T06:25:28.492Z,16.60
2022-12-09T06:26:28.337Z,17.70
2022-12-09T06:27:28.192Z,16.90
2022-12-09T06:28:28.473Z,16.90
2022-12-09T06:29:28.298Z,17.50
2022-12-09T06:30:28.505Z,18.70
2022-12-09T06:31:28.308Z,17.70
2022-12-09T06:32:28.581Z,18.20
2022-12-09T06:34:28.335Z,18.00
2022-12-09T06:35:28.572Z,16.70
2022-12-09T06:36:28.401Z,17.60
2022-12-09T06:37:28.065Z,16.80
2022-12-09T06:38:28.367Z,16.40
2022-12-09T06:39:28.043Z,18.30
2022-12-09T06:40:28.398Z,17.50
2022-12-09T06:41:28.245Z,16.20
2022-12-09T06:42:28.336Z,17.50
2022-12-09T06:43:28.350Z,16.10
2022-12-09T06:44:28.037Z,17.40
2022-12-09T06:45:28.210Z,17.60
2022-12-09T06:46:28.165Z,16.40
2022-12-09T06:47:28.211Z,18.00
2022-12-09T06:48:28.068Z,17.30
2022-12-09T06:49:28.141Z,16.60
2022-12-09T06:50:28.035Z,16.60
2022-12-09T06:51:28.154Z,17.10
2022-12-09T06:52:28.200Z,17.50
2022-12-09T06:53:28.260Z,17.20
2022-12-09T06:54:27.987Z,17.40
2022-12-09T06:55:28.103Z,18.00
2022-12-09T06:56:28.323Z,17.10
2022-12-09T06:57:28.046Z,17.50
2022-12-09T06:58:27.915Z,17.30
2022-12-09T06:59:28.151Z,16.60
2022-12-09T07:00:28.408Z,16.80
2022-12-09T07:01:28.093Z,17.50
2022-12-09T07:02:31.328Z,16.00
2022-12-09T07:03:28.204Z,17.00
2022-12-09T07:04:28.158Z,17.10
2022-12-09T07:05:28.060Z,16.00
2022-12-09T07:06:28.061Z,17.50
2022-12-09T07:07:27.730Z,16.90
2022-12-09T07:08:27.844Z,16.30
2022-12-09T07:09:27.953Z,17.00
2022-12-09T07:10:28.076Z,16.80
2022-12-09T07:11:28.275Z,17.10
2022-12-09T07:12:27.882Z,15.70
2022-12-09T07:13:27.803Z,16.80
2022-12-09T07:14:28.149Z,15.80
2022-12-09T07:15:27.683Z,16.60
2022-12-09T07:16:27.827Z,16.10
2022-12-09T07:17:28.026Z,16.70
2022-12-09T07:18:27.844Z,16.10
2022-12-09T07:19:27.744Z,15.90
2022-12-09T07:20:27.734Z,17.50
2022-12-09T07:21:27.689Z,16.50
2022-12-09T07:22:27.779Z,16.30
2022-12-09T07:23:27.819Z,15.30
2022-12-09T07:24:27.848Z,15.80
2022-12-09T07:25:27.912Z,16.80
2022-12-09T07:26:27.978Z,15.80
2022-12-09T07:27:27.517Z,16.70
2022-12-09T07:28:27.540Z,17.30
2022-12-09T07:29:27.714Z,16.90
2022-12-09T07:30:27.805Z,17.70
2022-12-09T07:31:27.775Z,16.70
2022-12-09T07:32:27.583Z,15.90
2022-12-09T07:33:27.923Z,16.60
2022-12-09T07:34:27.646Z,16.40
2022-12-09T07:35:27.598Z,15.00
2022-12-09T07:36:27.869Z,15.20
2022-12-09T07:37:27.690Z,16.60
2022-12-09T07:38:27.831Z,15.90
2022-12-09T07:39:27.489Z,15.80
2022-12-09T07:40:27.991Z,16.40
2022-12-09T07:41:27.594Z,15.30
2022-12-09T07:42:27.610Z,15.40
2022-12-09T07:43:27.676Z,15.10
2022-12-09T07:44:27.441Z,15.30
2022-12-09T07:45:27.856Z,15.00
2022-12-09T07:46:27.593Z,15.80
2022-12-09T07:47:27.388Z,15.30
2022-12-09T07:48:27.618Z,14.90
2022-12-09T07:49:27.459Z,14.90
2022-12-09T07:50:27.565Z,15.80
2022-12-09T07:51:27.613Z,13.90
2022-12-09T07:52:27.681Z,15.00
2022-12-09T07:53:27.261Z,15.20
2022-12-09T07:54:27.712Z,14.10
2022-12-09T07:55:27.538Z,14.40
2022-12-09T07:56:27.623Z,13.90
2022-12-09T07:57:27.308Z,13.70
2022-12-09T07:58:27.541Z,15.00
2022-12-09T07:59:27.276Z,14.90
2022-12-09T08:00:27.287Z,14.00
2022-12-09T08:01:27.666Z,14.40
2022-12-09T08:02:27.584Z,14.40
2022-12-09T08:03:27.607Z,15.30
2022-12-09T08:04:27.326Z,13.40
2022-12-09T08:05:27.464Z,14.70
2022-12-09T08:06:27.564Z,14.40
2022-12-09T08:07:27.348Z,13.80
2022-12-09T08:08:27.543Z,14.50
2022-12-09T08:09:27.465Z,13.90
2022-12-09T08:10:27.340Z,15.40
2022-12-09T08:11:27.502Z,14.70
2022-12-09T08:12:27.249Z,13.00
2022-12-09T08:13:27.290Z,14.10
2022-12-09T08:14:27.121Z,14.30
2022-12-09T08:15:27.285Z,13.20
2022-12-09T08:16:27.556Z,13.70
2022-12-09T08:17:27.533Z,14.20
2022-12-09T08:18:27.366Z,14.30
2022-12-09T08:19:27.146Z,14.50
2022-12-09T08:20:29.280Z,13.40
2022-12-09T08:21:27.142Z,14.70
2022-12-09T08:22:26.945Z,15.20
2022-12-09T08:23:27.071Z,13.90
2022-12-09T08:24:27.401Z,14.40
2022-12-09T08:25:27.224Z,15.20
2022-12-09T08:26:27.140Z,14.70
2022-12-09T08:27:26.951Z,16.50
2022-12-09T08:28:27.021Z,16.90
2022-12-09T08:29:26.867Z,14.40
2022-12-09T08:30:27.491Z,14.70
2022-12-09T08:31:27.408Z,15.30
2022-12-09T08:32:27.129Z,14.50
2022-12-09T08:33:26.989Z,14.60
2022-12-09T08:34:27.044Z,15.50
2022-12-09T08:35:26.891Z,18.00
2022-12-09T08:36:27.319Z,15.00
2022-12-09T08:37:27.222Z,15.80
2022-12-09T08:38:27.001Z,15.70
2022-12-09T08:39:26.970Z,16.20
2022-12-09T08:40:27.158Z,19.50
2022-12-09T08:41:26.893Z,20.80
2022-12-09T08:42:26.803Z,22.50
2022-12-09T08:43:27.095Z,20.50
2022-12-09T08:44:27.227Z,21.60
2022-12-09T08:45:26.882Z,21.10
2022-12-09T08:46:27.085Z,23.20
2022-12-09T08:47:26.978Z,22.80
2022-12-09T08:48:27.189Z,17.60
2022-12-09T08:49:26.744Z,20.30
2022-12-09T08:50:27.259Z,18.80
2022-12-09T08:51:26.819Z,18.00
2022-12-09T08:52:26.816Z,17.80
2022-12-09T08:53:27.025Z,19.30
2022-12-09T08:54:26.866Z,19.00
2022-12-09T08:55:26.603Z,18.00
2022-12-09T08:56:26.987Z,19.00
2022-12-09T08:57:26.934Z,16.90
2022-12-09T08:58:26.603Z,17.80
2022-12-09T08:59:26.985Z,18.40
2022-12-09T09:00:26.977Z,16.90
2022-12-09T09:01:26.894Z,17.30
2022-12-09T09:02:26.723Z,17.20
2022-12-09T09:03:26.716Z,17.10
2022-12-09T09:04:27.087Z,16.90
2022-12-09T09:05:27.192Z,17.40
2022-12-09T09:06:26.987Z,15.40
2022-12-09T09:07:26.654Z,16.80
2022-12-09T09:08:26.795Z,16.50
2022-12-09T09:09:26.858Z,16.20
2022-12-09T09:10:26.746Z,17.00
2022-12-09T09:11:26.962Z,16.40
2022-12-09T09:12:26.760Z,15.40
2022-12-09T09:13:26.558Z,16.60
2022-12-09T09:14:26.387Z,14.70
2022-12-09T09:15:26.408Z,14.90
2022-12-09T09:16:26.519Z,14.50
2022-12-09T09:17:26.557Z,14.60
2022-12-09T09:18:26.865Z,14.30
2022-12-09T09:19:26.854Z,13.90
2022-12-09T09:20:26.502Z,15.10
2022-12-09T09:21:26.305Z,14.70
2022-12-09T09:22:26.641Z,14.10
2022-12-09T09:23:26.359Z,13.80
2022-12-09T09:24:26.797Z,14.30
2022-12-09T09:25:26.274Z,13.50
2022-12-09T09:26:26.826Z,14.00
2022-12-09T09:27:26.321Z,14.50
2022-12-09T09:28:31.009Z,14.40
2022-12-09T09:29:26.357Z,12.60
2022-12-09T09:30:26.342Z,13.70
2022-12-09T09:31:26.768Z,13.20
2022-12-09T09:32:26.557Z,12.70
2022-12-09T09:33:26.531Z,12.80
2022-12-09T09:34:26.824Z,13.00
2022-12-09T09:35:26.630Z,12.10
2022-12-09T09:36:26.438Z,12.30
2022-12-09T09:37:26.528Z,12.40
2022-12-09T09:38:26.379Z,12.80
2022-12-09T09:39:26.620Z,12.50
2022-12-09T09:40:26.282Z,12.40
2022-12-09T09:41:26.344Z,12.80
2022-12-09T09:42:26.490Z,12.00
2022-12-09T09:43:26.492Z,12.30
2022-12-09T09:44:26.526Z,11.70
2022-12-09T09:45:26.231Z,12.20
2022-12-09T09:46:26.449Z,12.40
2022-12-09T09:47:26.210Z,13.00
2022-12-09T09:48:26.093Z,12.40
2022-12-09T09:49:26.346Z,12.80
2022-12-09T09:50:26.413Z,12.60
2022-12-09T09:51:26.095Z,13.30
2022-12-09T09:52:26.116Z,12.20
2022-12-09T09:53:26.107Z,12.60
2022-12-09T09:54:26.214Z,11.70
2022-12-09T09:55:25.932Z,12.60
2022-12-09T09:56:26.251Z,12.10
2022-12-09T09:57:26.309Z,11.40
2022-12-09T09:58:26.363Z,12.40
2022-12-09T09:59:26.333Z,13.10
2022-12-09T10:00:26.640Z,11.80
2022-12-09T10:01:26.185Z,12.70
2022-12-09T10:02:26.236Z,11.90
2022-12-09T10:03:26.700Z,13.50
2022-12-09T10:04:26.425Z,12.10
2022-12-09T10:05:26.275Z,12.30
2022-12-09T10:06:26.246Z,11.90
2022-12-09T10:07:26.134Z,11.90
2022-12-09T10:08:26.184Z,11.40
2022-12-09T10:09:26.011Z,12.10
2022-12-09T10:10:26.055Z,10.60
2022-12-09T10:11:26.136Z,12.00
2022-12-09T10:12:26.095Z,11.60
2022-12-09T10:13:26.404Z,10.80
2022-12-09T10:14:26.300Z,11.80
2022-12-09T10:15:25.995Z,11.90
2022-12-09T10:16:26.040Z,11.50
2022-12-09T10:17:26.104Z,10.90
2022-12-09T10:18:26.014Z,11.50
2022-12-09T10:19:25.994Z,11.80
2022-12-09T10:20:26.420Z,11.90
2022-12-09T10:21:25.833Z,11.10
2022-12-09T10:22:25.799Z,11.80
2022-12-09T10:23:26.145Z,11.50
2022-12-09T10:24:26.006Z,11.10
2022-12-09T10:25:25.893Z,10.90
2022-12-09T10:26:25.846Z,12.00
2022-12-09T10:27:25.766Z,11.70
2022-12-09T10:28:25.701Z,11.90
2022-12-09T10:29:25.955Z,10.80
2022-12-09T10:30:29.948Z,11.80
2022-12-09T10:31:25.915Z,11.80
2022-12-09T10:32:25.712Z,12.50
2022-12-09T10:33:25.860Z,11.60
2022-12-09T10:34:25.753Z,12.40
2022-12-09T10:35:25.765Z,11.50
2022-12-09T10:36:29.400Z,12.50
2022-12-09T10:37:25.918Z,12.70
2022-12-09T10:38:25.516Z,11.80
2022-12-09T10:39:25.539Z,12.60
2022-12-09T10:40:25.686Z,12.80
2022-12-09T10:41:25.612Z,14.00
2022-12-09T10:42:28.368Z,13.00
2022-12-09T10:43:25.489Z,13.80
2022-12-09T10:44:25.544Z,13.80
2022-12-09T10:45:35.683Z,13.30
2022-12-09T10:46:25.841Z,14.70
2022-12-09T10:47:26.048Z,13.90
2022-12-09T10:48:29.612Z,14.30
2022-12-09T10:49:25.645Z,15.00
2022-12-09T10:50:26.721Z,13.90
2022-12-09T10:51:26.830Z,12.80
2022-12-09T10:52:25.753Z,13.30
2022-12-09T10:53:25.415Z,13.10
2022-12-09T10:54:25.746Z,13.20
2022-12-09T10:55:25.672Z,13.50
2022-12-09T10:56:25.343Z,13.50
2022-12-09T10:57:25.353Z,14.70
2022-12-09T10:58:25.651Z,13.20
2022-12-09T10:59:25.781Z,12.60
2022-12-09T11:00:29.655Z,12.90
2022-12-09T11:01:25.469Z,13.00
2022-12-09T11:02:25.574Z,13.70
2022-12-09T11:03:25.574Z,12.20
2022-12-09T11:04:25.748Z,13.10
2022-12-09T11:05:25.468Z,13.00
2022-12-09T11:06:25.955Z,13.60
2022-12-09T11:07:25.877Z,13.90
2022-12-09T11:08:25.487Z,12.00
2022-12-09T11:09:25.356Z,13.50
2022-12-09T11:10:25.772Z,12.70
2022-12-09T11:11:25.610Z,12.10
2022-12-09T11:12:25.160Z,12.80
2022-12-09T11:13:25.416Z,12.40
2022-12-09T11:14:25.610Z,11.30
2022-12-09T11:15:25.579Z,12.00
2022-12-09T11:16:25.362Z,12.90
2022-12-09T11:17:25.300Z,12.50
2022-12-09T11:18:25.632Z,12.10
2022-12-09T11:19:25.380Z,11.30
2022-12-09T11:20:25.487Z,12.30
2022-12-09T11:21:25.149Z,12.30
2022-12-09T11:22:25.204Z,13.50
2022-12-09T11:23:25.512Z,12.40
2022-12-09T11:24:25.127Z,11.80
2022-12-09T11:25:25.321Z,12.40
2022-12-09T11:26:25.258Z,12.20
2022-12-09T11:27:25.016Z,11.80
2022-12-09T11:28:25.400Z,12.50
2022-12-09T11:29:24.954Z,12.10
2022-12-09T11:30:25.500Z,11.80
2022-12-09T11:31:29.922Z,12.10
2022-12-09T11:32:25.341Z,11.00
2022-12-09T11:33:25.344Z,11.10
2022-12-09T11:34:25.220Z,11.50
2022-12-09T11:35:25.081Z,12.10
2022-12-09T11:36:26.360Z,12.10
2022-12-09T11:37:24.799Z,12.80
2022-12-09T11:38:24.848Z,12.00
2022-12-09T11:39:24.789Z,11.50
2022-12-09T11:40:24.796Z,11.20
2022-12-09T11:41:24.763Z,11.20
2022-12-09T11:42:24.761Z,11.70
2022-12-09T11:43:24.779Z,12.20
2022-12-09T11:44:24.735Z,10.10
2022-12-09T11:45:24.737Z,10.40
2022-12-09T11:46:24.731Z,10.90
2022-12-09T11:47:24.716Z,10.90
2022-12-09T11:48:32.866Z,11.90
2022-12-09T11:49:24.682Z,11.20
2022-12-09T11:50:24.782Z,11.20
2022-12-09T11:51:24.661Z,11.80
2022-12-09T11:52:24.655Z,12.10
2022-12-09T11:53:24.641Z,11.50
2022-12-09T11:54:24.618Z,11.70
2022-12-09T11:55:24.662Z,12.80
2022-12-09T11:56:24.594Z,12.30
2022-12-09T11:57:24.612Z,11.60
2022-12-09T11:58:24.593Z,11.80
2022-12-09T11:59:24.576Z,12.60
2022-12-09T12:00:24.580Z,12.30
2022-12-09T12:01:24.551Z,12.80
2022-12-09T12:02:24.681Z,12.70
2022-12-09T12:03:24.644Z,12.00
2022-12-09T12:04:24.517Z,12.40
2022-12-09T12:05:24.569Z,12.40
2022-12-09T12:06:24.494Z,12.60
2022-12-09T12:07:24.489Z,12.30
2022-12-09T12:08:24.614Z,13.00
2022-12-09T12:09:24.459Z,13.20
2022-12-09T12:10:24.468Z,12.60
2022-12-09T12:11:24.452Z,11.90
2022-12-09T12:12:24.436Z,13.40
2022-12-09T12:13:24.426Z,13.20
2022-12-09T12:14:24.411Z,12.20
2022-12-09T12:15:24.445Z,12.40
2022-12-09T12:16:24.409Z,12.00
2022-12-09T12:17:24.483Z,11.60
2022-12-09T12:18:24.373Z,12.50
2022-12-09T12:19:24.358Z,12.50
2022-12-09T12:20:24.362Z,13.00
2022-12-09T12:21:24.343Z,11.10
2022-12-09T12:22:24.331Z,12.10
2022-12-09T12:23:24.307Z,12.80
2022-12-09T12:24:24.310Z,11.60
2022-12-09T12:25:24.313Z,12.00
2022-12-09T12:26:24.312Z,11.30
2022-12-09T12:27:24.276Z,11.30
2022-12-09T12:28:24.363Z,13.20
2022-12-09T12:29:24.244Z,12.00
2022-12-09T12:30:24.264Z,12.90
2022-12-09T12:31:24.255Z,11.60
2022-12-09T12:32:24.251Z,11.60
2022-12-09T12:34:25.270Z,12.70
2022-12-09T12:35:24.202Z,11.00
2022-12-09T12:36:24.168Z,13.10
2022-12-09T12:37:24.194Z,12.20
2022-12-09T12:38:24.163Z,12.50
2022-12-09T12:39:24.170Z,12.70
2022-12-09T12:40:26.937Z,11.50
2022-12-09T12:41:24.127Z,12.50
2022-12-09T12:42:24.137Z,13.40
2022-12-09T12:43:24.111Z,11.70
2022-12-09T12:44:24.103Z,12.10
2022-12-09T12:45:24.109Z,12.10
2022-12-09T12:46:24.127Z,12.40
2022-12-09T12:47:24.083Z,11.90
2022-12-09T12:48:24.151Z,11.90
2022-12-09T12:49:24.027Z,11.50
2022-12-09T12:50:24.028Z,11.70
2022-12-09T12:51:24.004Z,11.90
2022-12-09T12:52:54.446Z,12.40
2022-12-09T12:53:23.994Z,12.40
2022-12-09T12:54:23.984Z,13.10